sensor_id;sensor_type;location;lat;lon;timestamp;temperature;humidity
8002;DHT22;4046;48.774;8.732;2024-01-07T00:00:50;22.80;72.30
8002;DHT22;4046;48.774;8.732;2024-01-07T00:03:17;22.80;72.30
8002;DHT22;4046;48.774;8.732;2024-01-07T00:05:45;22.80;72.20
8002;DHT22;4046;48.774;8.732;2024-01-07T00:08:12;22.80;72.20
8002;DHT22;4046;48.774;8.732;2024-01-07T00:10:39;22.80;72.20
8002;DHT22;4046;48.774;8.732;2024-01-07T00:13:12;22.80;72.10
8002;DHT22;4046;48.774;8.732;2024-01-07T00:15:42;22.80;72.20
8002;DHT22;4046;48.774;8.732;2024-01-07T00:18:11;22.80;72.20
8002;DHT22;4046;48.774;8.732;2024-01-07T00:20:37;22.90;72.30
8002;DHT22;4046;48.774;8.732;2024-01-07T00:23:03;22.80;72.30
8002;DHT22;4046;48.774;8.732;2024-01-07T00:25:29;22.80;72.20
8002;DHT22;4046;48.774;8.732;2024-01-07T00:27:55;22.80;72.20
8002;DHT22;4046;48.774;8.732;2024-01-07T00:30:21;22.80;72.20
8002;DHT22;4046;48.774;8.732;2024-01-07T00:32:47;22.80;72.20
8002;DHT22;4046;48.774;8.732;2024-01-07T00:35:13;22.80;72.20
8002;DHT22;4046;48.774;8.732;2024-01-07T00:37:40;22.80;72.20
8002;DHT22;4046;48.774;8.732;2024-01-07T00:40:06;22.80;72.30
8002;DHT22;4046;48.774;8.732;2024-01-07T00:42:32;22.80;72.20
8002;DHT22;4046;48.774;8.732;2024-01-07T00:44:59;22.80;72.20
8002;DHT22;4046;48.774;8.732;2024-01-07T00:47:25;22.80;72.10
8002;DHT22;4046;48.774;8.732;2024-01-07T00:49:52;22.80;72.20
8002;DHT22;4046;48.774;8.732;2024-01-07T00:52:18;22.80;72.30
8002;DHT22;4046;48.774;8.732;2024-01-07T00:54:46;22.80;72.20
8002;DHT22;4046;48.774;8.732;2024-01-07T00:57:15;22.80;72.20
8002;DHT22;4046;48.774;8.732;2024-01-07T00:59:41;22.80;72.20
8002;DHT22;4046;48.774;8.732;2024-01-07T01:02:07;22.80;72.20
8002;DHT22;4046;48.774;8.732;2024-01-07T01:04:34;22.80;72.20
8002;DHT22;4046;48.774;8.732;2024-01-07T01:07:04;22.80;72.20
8002;DHT22;4046;48.774;8.732;2024-01-07T01:09:30;22.70;72.10
8002;DHT22;4046;48.774;8.732;2024-01-07T01:11:56;22.80;72.10
8002;DHT22;4046;48.774;8.732;2024-01-07T01:14:22;22.80;72.30
8002;DHT22;4046;48.774;8.732;2024-01-07T01:16:48;22.80;72.10
8002;DHT22;4046;48.774;8.732;2024-01-07T01:19:14;22.80;72.10
8002;DHT22;4046;48.774;8.732;2024-01-07T01:21:41;22.80;72.10
8002;DHT22;4046;48.774;8.732;2024-01-07T01:24:09;22.80;72.10
8002;DHT22;4046;48.774;8.732;2024-01-07T01:26:38;22.80;72.90
8002;DHT22;4046;48.774;8.732;2024-01-07T01:29:05;22.80;73.00
8002;DHT22;4046;48.774;8.732;2024-01-07T01:31:36;22.70;72.10
8002;DHT22;4046;48.774;8.732;2024-01-07T01:34:02;22.80;72.20
8002;DHT22;4046;48.774;8.732;2024-01-07T01:36:31;22.80;72.10
8002;DHT22;4046;48.774;8.732;2024-01-07T01:39:00;22.80;72.10
8002;DHT22;4046;48.774;8.732;2024-01-07T01:41:31;22.80;72.10
8002;DHT22;4046;48.774;8.732;2024-01-07T01:44:04;22.80;72.10
8002;DHT22;4046;48.774;8.732;2024-01-07T01:46:31;22.80;72.10
8002;DHT22;4046;48.774;8.732;2024-01-07T01:48:58;22.80;72.10
8002;DHT22;4046;48.774;8.732;2024-01-07T01:51:30;22.80;72.10
8002;DHT22;4046;48.774;8.732;2024-01-07T01:53:56;22.70;72.10
8002;DHT22;4046;48.774;8.732;2024-01-07T01:56:24;22.70;72.10
8002;DHT22;4046;48.774;8.732;2024-01-07T01:59:08;22.70;72.10
8002;DHT22;4046;48.774;8.732;2024-01-07T02:01:35;22.80;72.10
8002;DHT22;4046;48.774;8.732;2024-01-07T02:04:01;22.80;72.10
8002;DHT22;4046;48.774;8.732;2024-01-07T02:06:27;22.80;72.10
8002;DHT22;4046;48.774;8.732;2024-01-07T02:08:54;22.80;72.10
8002;DHT22;4046;48.774;8.732;2024-01-07T02:11:22;22.80;72.10
8002;DHT22;4046;48.774;8.732;2024-01-07T02:13:51;22.80;72.10
8002;DHT22;4046;48.774;8.732;2024-01-07T02:16:16;22.70;72.00
8002;DHT22;4046;48.774;8.732;2024-01-07T02:18:44;22.70;72.00
8002;DHT22;4046;48.774;8.732;2024-01-07T02:21:12;22.70;72.00
8002;DHT22;4046;48.774;8.732;2024-01-07T02:23:39;22.90;72.30
8002;DHT22;4046;48.774;8.732;2024-01-07T02:26:07;22.70;72.00
8002;DHT22;4046;48.774;8.732;2024-01-07T02:28:45;22.70;72.00
8002;DHT22;4046;48.774;8.732;2024-01-07T02:31:11;22.80;72.10
8002;DHT22;4046;48.774;8.732;2024-01-07T02:33:44;22.80;72.10
8002;DHT22;4046;48.774;8.732;2024-01-07T02:36:12;22.80;72.10
8002;DHT22;4046;48.774;8.732;2024-01-07T02:38:41;23.00;72.30
8002;DHT22;4046;48.774;8.732;2024-01-07T02:41:07;22.80;72.00
8002;DHT22;4046;48.774;8.732;2024-01-07T02:43:38;22.80;72.10
8002;DHT22;4046;48.774;8.732;2024-01-07T02:46:05;22.80;72.00
8002;DHT22;4046;48.774;8.732;2024-01-07T02:48:31;22.80;71.90
8002;DHT22;4046;48.774;8.732;2024-01-07T02:50:57;22.80;72.00
8002;DHT22;4046;48.774;8.732;2024-01-07T02:53:23;22.80;72.00
8002;DHT22;4046;48.774;8.732;2024-01-07T02:55:53;22.80;72.00
8002;DHT22;4046;48.774;8.732;2024-01-07T02:58:19;22.70;71.90
8002;DHT22;4046;48.774;8.732;2024-01-07T03:00:46;22.70;72.00
8002;DHT22;4046;48.774;8.732;2024-01-07T03:03:19;22.70;72.00
8002;DHT22;4046;48.774;8.732;2024-01-07T03:05:46;22.80;72.10
8002;DHT22;4046;48.774;8.732;2024-01-07T03:08:14;22.80;72.10
8002;DHT22;4046;48.774;8.732;2024-01-07T03:10:41;22.70;72.00
8002;DHT22;4046;48.774;8.732;2024-01-07T03:13:07;22.40;71.60
8002;DHT22;4046;48.774;8.732;2024-01-07T03:15:49;23.20;72.50
8002;DHT22;4046;48.774;8.732;2024-01-07T03:18:21;22.70;72.00
8002;DHT22;4046;48.774;8.732;2024-01-07T03:20:47;22.70;72.00
8002;DHT22;4046;48.774;8.732;2024-01-07T03:23:13;22.80;72.00
8002;DHT22;4046;48.774;8.732;2024-01-07T03:25:39;22.80;72.00
8002;DHT22;4046;48.774;8.732;2024-01-07T03:28:06;22.70;72.00
8002;DHT22;4046;48.774;8.732;2024-01-07T03:30:31;22.80;72.00
8002;DHT22;4046;48.774;8.732;2024-01-07T03:32:59;22.80;72.00
8002;DHT22;4046;48.774;8.732;2024-01-07T03:35:30;22.80;72.00
8002;DHT22;4046;48.774;8.732;2024-01-07T03:38:03;22.80;71.90
8002;DHT22;4046;48.774;8.732;2024-01-07T03:40:31;22.70;71.90
8002;DHT22;4046;48.774;8.732;2024-01-07T03:42:57;22.70;71.90
8002;DHT22;4046;48.774;8.732;2024-01-07T03:45:23;22.70;71.90
8002;DHT22;4046;48.774;8.732;2024-01-07T03:47:52;22.70;71.90
8002;DHT22;4046;48.774;8.732;2024-01-07T03:50:20;22.70;72.00
8002;DHT22;4046;48.774;8.732;2024-01-07T03:52:47;23.00;72.20
8002;DHT22;4046;48.774;8.732;2024-01-07T03:55:14;22.70;71.90
8002;DHT22;4046;48.774;8.732;2024-01-07T03:57:43;22.70;71.80
8002;DHT22;4046;48.774;8.732;2024-01-07T04:00:09;22.70;71.90
8002;DHT22;4046;48.774;8.732;2024-01-07T04:02:35;22.70;71.90
8002;DHT22;4046;48.774;8.732;2024-01-07T04:05:01;22.70;71.90
8002;DHT22;4046;48.774;8.732;2024-01-07T04:07:27;22.70;72.70
8002;DHT22;4046;48.774;8.732;2024-01-07T04:09:53;22.70;72.00
8002;DHT22;4046;48.774;8.732;2024-01-07T04:12:19;22.70;71.90
8002;DHT22;4046;48.774;8.732;2024-01-07T04:14:45;22.70;71.90
8002;DHT22;4046;48.774;8.732;2024-01-07T04:17:11;22.70;71.90
8002;DHT22;4046;48.774;8.732;2024-01-07T04:19:40;22.70;71.90
8002;DHT22;4046;48.774;8.732;2024-01-07T04:22:09;22.80;71.90
8002;DHT22;4046;48.774;8.732;2024-01-07T04:24:36;22.80;71.90
8002;DHT22;4046;48.774;8.732;2024-01-07T04:27:05;22.80;71.90
8002;DHT22;4046;48.774;8.732;2024-01-07T04:29:47;22.80;72.00
8002;DHT22;4046;48.774;8.732;2024-01-07T04:32:14;23.00;72.10
8002;DHT22;4046;48.774;8.732;2024-01-07T04:34:39;22.70;72.60
8002;DHT22;4046;48.774;8.732;2024-01-07T04:37:08;22.70;71.90
8002;DHT22;4046;48.774;8.732;2024-01-07T04:39:43;22.70;71.80
8002;DHT22;4046;48.774;8.732;2024-01-07T04:42:15;22.70;71.80
8002;DHT22;4046;48.774;8.732;2024-01-07T04:44:49;22.70;71.80
8002;DHT22;4046;48.774;8.732;2024-01-07T04:47:34;23.10;72.30
8002;DHT22;4046;48.774;8.732;2024-01-07T04:50:03;22.70;72.60
8002;DHT22;4046;48.774;8.732;2024-01-07T04:52:40;22.70;71.90
8002;DHT22;4046;48.774;8.732;2024-01-07T04:55:07;22.70;71.90
8002;DHT22;4046;48.774;8.732;2024-01-07T04:57:36;22.70;71.90
8002;DHT22;4046;48.774;8.732;2024-01-07T05:00:05;22.70;71.80
8002;DHT22;4046;48.774;8.732;2024-01-07T05:02:31;22.70;72.00
8002;DHT22;4046;48.774;8.732;2024-01-07T05:04:58;22.70;71.90
8002;DHT22;4046;48.774;8.732;2024-01-07T05:07:24;22.70;71.80
8002;DHT22;4046;48.774;8.732;2024-01-07T05:09:53;22.70;71.80
8002;DHT22;4046;48.774;8.732;2024-01-07T05:12:26;22.70;71.80
8002;DHT22;4046;48.774;8.732;2024-01-07T05:14:52;22.70;71.80
8002;DHT22;4046;48.774;8.732;2024-01-07T05:17:26;22.70;71.80
8002;DHT22;4046;48.774;8.732;2024-01-07T05:19:54;22.70;71.90
8002;DHT22;4046;48.774;8.732;2024-01-07T05:22:24;22.70;71.80
8002;DHT22;4046;48.774;8.732;2024-01-07T05:24:56;22.70;71.90
8002;DHT22;4046;48.774;8.732;2024-01-07T05:27:27;22.70;71.80
8002;DHT22;4046;48.774;8.732;2024-01-07T05:29:59;22.70;71.80
8002;DHT22;4046;48.774;8.732;2024-01-07T05:32:27;22.70;71.80
8002;DHT22;4046;48.774;8.732;2024-01-07T05:34:54;22.70;71.80
8002;DHT22;4046;48.774;8.732;2024-01-07T05:37:19;22.70;71.80
8002;DHT22;4046;48.774;8.732;2024-01-07T05:39:54;23.10;72.20
8002;DHT22;4046;48.774;8.732;2024-01-07T05:42:23;22.70;71.70
8002;DHT22;4046;48.774;8.732;2024-01-07T05:44:59;22.70;71.70
8002;DHT22;4046;48.774;8.732;2024-01-07T05:47:28;22.70;71.80
8002;DHT22;4046;48.774;8.732;2024-01-07T05:50:00;22.80;71.80
8002;DHT22;4046;48.774;8.732;2024-01-07T05:52:34;22.70;71.70
8002;DHT22;4046;48.774;8.732;2024-01-07T05:55:00;22.70;71.80
8002;DHT22;4046;48.774;8.732;2024-01-07T05:57:32;22.70;71.80
8002;DHT22;4046;48.774;8.732;2024-01-07T06:00:01;22.70;71.70
8002;DHT22;4046;48.774;8.732;2024-01-07T06:02:30;22.70;71.70
8002;DHT22;4046;48.774;8.732;2024-01-07T06:04:59;22.70;71.70
8002;DHT22;4046;48.774;8.732;2024-01-07T06:07:24;22.70;71.80
8002;DHT22;4046;48.774;8.732;2024-01-07T06:09:50;22.70;71.70
8002;DHT22;4046;48.774;8.732;2024-01-07T06:12:19;22.70;71.70
8002;DHT22;4046;48.774;8.732;2024-01-07T06:14:45;22.70;71.70
8002;DHT22;4046;48.774;8.732;2024-01-07T06:17:13;22.70;71.70
8002;DHT22;4046;48.774;8.732;2024-01-07T06:19:45;22.70;71.70
8002;DHT22;4046;48.774;8.732;2024-01-07T06:22:11;22.70;71.70
8002;DHT22;4046;48.774;8.732;2024-01-07T06:24:38;22.70;71.60
8002;DHT22;4046;48.774;8.732;2024-01-07T06:27:06;22.70;71.70
8002;DHT22;4046;48.774;8.732;2024-01-07T06:29:38;22.70;72.30
8002;DHT22;4046;48.774;8.732;2024-01-07T06:32:09;22.70;71.70
8002;DHT22;4046;48.774;8.732;2024-01-07T06:34:38;22.70;71.70
8002;DHT22;4046;48.774;8.732;2024-01-07T06:37:09;22.70;71.70
8002;DHT22;4046;48.774;8.732;2024-01-07T06:39:38;22.70;71.70
8002;DHT22;4046;48.774;8.732;2024-01-07T06:42:13;22.70;72.40
8002;DHT22;4046;48.774;8.732;2024-01-07T06:44:40;22.90;71.90
8002;DHT22;4046;48.774;8.732;2024-01-07T06:47:06;22.70;71.70
8002;DHT22;4046;48.774;8.732;2024-01-07T06:49:46;22.70;71.80
8002;DHT22;4046;48.774;8.732;2024-01-07T06:52:15;22.70;71.70
8002;DHT22;4046;48.774;8.732;2024-01-07T06:54:48;22.70;71.70
8002;DHT22;4046;48.774;8.732;2024-01-07T06:57:16;22.70;71.70
8002;DHT22;4046;48.774;8.732;2024-01-07T06:59:49;22.70;71.70
8002;DHT22;4046;48.774;8.732;2024-01-07T07:02:23;22.70;71.70
8002;DHT22;4046;48.774;8.732;2024-01-07T07:04:49;22.90;72.00
8002;DHT22;4046;48.774;8.732;2024-01-07T07:07:17;22.70;71.70
8002;DHT22;4046;48.774;8.732;2024-01-07T07:09:43;22.70;71.70
8002;DHT22;4046;48.774;8.732;2024-01-07T07:12:12;22.70;71.70
8002;DHT22;4046;48.774;8.732;2024-01-07T07:14:40;22.70;71.70
8002;DHT22;4046;48.774;8.732;2024-01-07T07:17:12;22.70;71.70
8002;DHT22;4046;48.774;8.732;2024-01-07T07:19:41;22.70;72.00
8002;DHT22;4046;48.774;8.732;2024-01-07T07:22:07;22.70;71.70
8002;DHT22;4046;48.774;8.732;2024-01-07T07:24:41;22.70;71.70
8002;DHT22;4046;48.774;8.732;2024-01-07T07:27:07;22.70;71.60
8002;DHT22;4046;48.774;8.732;2024-01-07T07:29:33;22.70;71.60
8002;DHT22;4046;48.774;8.732;2024-01-07T07:32:12;22.70;71.60
8002;DHT22;4046;48.774;8.732;2024-01-07T07:34:41;22.70;71.60
8002;DHT22;4046;48.774;8.732;2024-01-07T07:37:07;23.00;71.90
8002;DHT22;4046;48.774;8.732;2024-01-07T07:39:33;22.70;71.60
8002;DHT22;4046;48.774;8.732;2024-01-07T07:42:01;22.70;71.60
8002;DHT22;4046;48.774;8.732;2024-01-07T07:44:30;22.70;71.60
8002;DHT22;4046;48.774;8.732;2024-01-07T07:46:56;22.70;71.60
8002;DHT22;4046;48.774;8.732;2024-01-07T07:49:23;22.70;71.60
8002;DHT22;4046;48.774;8.732;2024-01-07T07:51:49;22.70;71.60
8002;DHT22;4046;48.774;8.732;2024-01-07T07:54:22;22.70;71.60
8002;DHT22;4046;48.774;8.732;2024-01-07T07:56:48;23.10;72.00
8002;DHT22;4046;48.774;8.732;2024-01-07T07:59:21;22.70;71.60
8002;DHT22;4046;48.774;8.732;2024-01-07T08:01:47;22.70;71.50
8002;DHT22;4046;48.774;8.732;2024-01-07T08:04:13;22.70;71.60
8002;DHT22;4046;48.774;8.732;2024-01-07T08:06:39;22.70;71.60
8002;DHT22;4046;48.774;8.732;2024-01-07T08:09:08;22.70;71.60
8002;DHT22;4046;48.774;8.732;2024-01-07T08:11:34;22.70;71.60
8002;DHT22;4046;48.774;8.732;2024-01-07T08:14:00;22.70;71.60
8002;DHT22;4046;48.774;8.732;2024-01-07T08:16:27;22.70;71.60
8002;DHT22;4046;48.774;8.732;2024-01-07T08:18:53;22.80;71.60
8002;DHT22;4046;48.774;8.732;2024-01-07T08:21:24;22.80;71.60
8002;DHT22;4046;48.774;8.732;2024-01-07T08:23:53;22.70;71.60
8002;DHT22;4046;48.774;8.732;2024-01-07T08:26:22;22.70;71.50
8002;DHT22;4046;48.774;8.732;2024-01-07T08:28:49;22.70;71.60
8002;DHT22;4046;48.774;8.732;2024-01-07T08:31:15;22.70;71.70
8002;DHT22;4046;48.774;8.732;2024-01-07T08:33:44;22.70;72.30
8002;DHT22;4046;48.774;8.732;2024-01-07T08:36:13;22.70;71.60
8002;DHT22;4046;48.774;8.732;2024-01-07T08:38:40;22.70;71.60
8002;DHT22;4046;48.774;8.732;2024-01-07T08:41:06;22.70;71.60
8002;DHT22;4046;48.774;8.732;2024-01-07T08:43:32;22.70;71.50
8002;DHT22;4046;48.774;8.732;2024-01-07T08:45:59;22.70;71.60
8002;DHT22;4046;48.774;8.732;2024-01-07T08:48:30;22.70;71.50
8002;DHT22;4046;48.774;8.732;2024-01-07T08:50:56;22.70;71.50
8002;DHT22;4046;48.774;8.732;2024-01-07T08:53:40;22.70;71.50
8002;DHT22;4046;48.774;8.732;2024-01-07T08:56:07;22.70;71.40
8002;DHT22;4046;48.774;8.732;2024-01-07T08:58:41;22.70;71.50
8002;DHT22;4046;48.774;8.732;2024-01-07T09:01:08;22.70;71.50
8002;DHT22;4046;48.774;8.732;2024-01-07T09:03:39;22.70;71.50
8002;DHT22;4046;48.774;8.732;2024-01-07T09:06:07;22.70;72.30
8002;DHT22;4046;48.774;8.732;2024-01-07T09:08:37;22.70;71.50
8002;DHT22;4046;48.774;8.732;2024-01-07T09:11:08;22.70;71.40
8002;DHT22;4046;48.774;8.732;2024-01-07T09:13:43;22.70;71.40
8002;DHT22;4046;48.774;8.732;2024-01-07T09:16:13;22.70;71.60
8002;DHT22;4046;48.774;8.732;2024-01-07T09:18:39;22.60;71.50
8002;DHT22;4046;48.774;8.732;2024-01-07T09:21:08;22.60;71.60
8002;DHT22;4046;48.774;8.732;2024-01-07T09:23:34;22.60;71.70
8002;DHT22;4046;48.774;8.732;2024-01-07T09:26:02;22.60;71.70
8002;DHT22;4046;48.774;8.732;2024-01-07T09:28:29;22.50;71.70
8002;DHT22;4046;48.774;8.732;2024-01-07T09:30:56;22.50;71.70
8002;DHT22;4046;48.774;8.732;2024-01-07T09:33:22;22.00;71.30
8002;DHT22;4046;48.774;8.732;2024-01-07T09:35:50;22.40;71.60
8002;DHT22;4046;48.774;8.732;2024-01-07T09:38:21;22.40;71.60
8002;DHT22;4046;48.774;8.732;2024-01-07T09:40:52;22.40;71.60
8002;DHT22;4046;48.774;8.732;2024-01-07T09:43:19;22.40;71.50
8002;DHT22;4046;48.774;8.732;2024-01-07T09:45:47;22.50;71.60
8002;DHT22;4046;48.774;8.732;2024-01-07T09:48:17;22.50;71.50
8002;DHT22;4046;48.774;8.732;2024-01-07T09:50:43;22.50;71.40
8002;DHT22;4046;48.774;8.732;2024-01-07T09:53:15;22.60;71.50
8002;DHT22;4046;48.774;8.732;2024-01-07T09:56:19;22.60;71.40
8002;DHT22;4046;48.774;8.732;2024-01-07T09:58:49;22.60;71.30
8002;DHT22;4046;48.774;8.732;2024-01-07T10:01:18;22.60;71.20
8002;DHT22;4046;48.774;8.732;2024-01-07T10:03:45;22.60;71.20
8002;DHT22;4046;48.774;8.732;2024-01-07T10:06:17;22.60;71.20
8002;DHT22;4046;48.774;8.732;2024-01-07T10:08:44;22.60;71.20
8002;DHT22;4046;48.774;8.732;2024-01-07T10:11:15;22.60;71.20
8002;DHT22;4046;48.774;8.732;2024-01-07T10:13:41;22.60;71.20
8002;DHT22;4046;48.774;8.732;2024-01-07T10:16:10;22.60;71.10
8002;DHT22;4046;48.774;8.732;2024-01-07T10:18:36;22.60;71.10
8002;DHT22;4046;48.774;8.732;2024-01-07T10:21:03;22.70;71.20
8002;DHT22;4046;48.774;8.732;2024-01-07T10:23:32;22.70;71.20
8002;DHT22;4046;48.774;8.732;2024-01-07T10:25:58;22.70;71.20
8002;DHT22;4046;48.774;8.732;2024-01-07T10:28:24;22.70;71.20
8002;DHT22;4046;48.774;8.732;2024-01-07T10:30:50;22.70;71.30
8002;DHT22;4046;48.774;8.732;2024-01-07T10:33:18;22.60;71.10
8002;DHT22;4046;48.774;8.732;2024-01-07T10:35:52;22.70;71.20
8002;DHT22;4046;48.774;8.732;2024-01-07T10:38:20;22.70;71.30
8002;DHT22;4046;48.774;8.732;2024-01-07T10:40:50;22.70;71.30
8002;DHT22;4046;48.774;8.732;2024-01-07T10:43:22;22.70;71.30
8002;DHT22;4046;48.774;8.732;2024-01-07T10:45:50;22.70;71.20
8002;DHT22;4046;48.774;8.732;2024-01-07T10:48:20;22.70;71.20
8002;DHT22;4046;48.774;8.732;2024-01-07T10:50:47;22.70;71.20
8002;DHT22;4046;48.774;8.732;2024-01-07T10:53:21;22.70;71.20
8002;DHT22;4046;48.774;8.732;2024-01-07T10:56:00;22.70;71.20
8002;DHT22;4046;48.774;8.732;2024-01-07T10:58:36;23.10;71.70
8002;DHT22;4046;48.774;8.732;2024-01-07T11:01:02;22.70;71.20
8002;DHT22;4046;48.774;8.732;2024-01-07T11:03:46;22.70;71.20
8002;DHT22;4046;48.774;8.732;2024-01-07T11:06:40;22.70;71.30
8002;DHT22;4046;48.774;8.732;2024-01-07T11:09:27;22.70;71.30
8002;DHT22;4046;48.774;8.732;2024-01-07T11:11:56;22.70;71.20
8002;DHT22;4046;48.774;8.732;2024-01-07T11:14:41;22.70;71.20
8002;DHT22;4046;48.774;8.732;2024-01-07T11:20:27;22.70;71.20
8002;DHT22;4046;48.774;8.732;2024-01-07T11:22:52;22.70;71.30
8002;DHT22;4046;48.774;8.732;2024-01-07T11:25:39;22.70;71.30
8002;DHT22;4046;48.774;8.732;2024-01-07T11:28:06;22.70;71.30
8002;DHT22;4046;48.774;8.732;2024-01-07T11:30:38;22.70;71.30
8002;DHT22;4046;48.774;8.732;2024-01-07T11:33:13;23.10;71.60
8002;DHT22;4046;48.774;8.732;2024-01-07T11:36:04;22.70;71.80
8002;DHT22;4046;48.774;8.732;2024-01-07T11:38:30;22.60;72.00
8002;DHT22;4046;48.774;8.732;2024-01-07T11:41:00;22.60;71.80
8002;DHT22;4046;48.774;8.732;2024-01-07T11:43:29;22.60;71.80
8002;DHT22;4046;48.774;8.732;2024-01-07T11:45:55;23.00;72.10
8002;DHT22;4046;48.774;8.732;2024-01-07T11:48:22;22.60;71.80
8002;DHT22;4046;48.774;8.732;2024-01-07T11:50:50;22.60;71.70
8002;DHT22;4046;48.774;8.732;2024-01-07T11:53:19;22.60;71.70
8002;DHT22;4046;48.774;8.732;2024-01-07T11:55:45;22.60;71.50
8002;DHT22;4046;48.774;8.732;2024-01-07T11:58:19;22.60;71.60
8002;DHT22;4046;48.774;8.732;2024-01-07T12:00:48;22.60;71.50
8002;DHT22;4046;48.774;8.732;2024-01-07T12:03:15;22.60;71.50
8002;DHT22;4046;48.774;8.732;2024-01-07T12:05:42;22.60;71.50
8002;DHT22;4046;48.774;8.732;2024-01-07T12:08:16;22.60;71.40
8002;DHT22;4046;48.774;8.732;2024-01-07T12:10:42;22.60;71.40
8002;DHT22;4046;48.774;8.732;2024-01-07T12:13:09;22.60;71.40
8002;DHT22;4046;48.774;8.732;2024-01-07T12:15:43;22.60;71.50
8002;DHT22;4046;48.774;8.732;2024-01-07T12:18:12;22.50;71.70
8002;DHT22;4046;48.774;8.732;2024-01-07T12:20:39;22.50;71.60
8002;DHT22;4046;48.774;8.732;2024-01-07T12:23:09;22.50;71.80
8002;DHT22;4046;48.774;8.732;2024-01-07T12:25:36;22.50;71.80
8002;DHT22;4046;48.774;8.732;2024-01-07T12:28:09;22.40;72.00
8002;DHT22;4046;48.774;8.732;2024-01-07T12:30:36;22.40;71.90
8002;DHT22;4046;48.774;8.732;2024-01-07T12:33:04;22.40;71.90
8002;DHT22;4046;48.774;8.732;2024-01-07T12:35:31;22.50;71.80
8002;DHT22;4046;48.774;8.732;2024-01-07T12:38:02;22.50;71.60
8002;DHT22;4046;48.774;8.732;2024-01-07T12:40:31;22.50;71.60
8002;DHT22;4046;48.774;8.732;2024-01-07T12:43:00;22.60;71.60
8002;DHT22;4046;48.774;8.732;2024-01-07T12:45:26;22.60;71.60
8002;DHT22;4046;48.774;8.732;2024-01-07T12:47:57;22.60;71.50
8002;DHT22;4046;48.774;8.732;2024-01-07T12:50:26;22.60;71.50
8002;DHT22;4046;48.774;8.732;2024-01-07T12:52:59;22.70;71.50
8002;DHT22;4046;48.774;8.732;2024-01-07T12:55:29;22.70;71.40
8002;DHT22;4046;48.774;8.732;2024-01-07T12:57:58;22.70;71.40
8002;DHT22;4046;48.774;8.732;2024-01-07T13:00:30;22.70;71.40
8002;DHT22;4046;48.774;8.732;2024-01-07T13:02:56;22.80;71.40
8002;DHT22;4046;48.774;8.732;2024-01-07T13:05:26;22.80;71.30
8002;DHT22;4046;48.774;8.732;2024-01-07T13:07:51;22.80;71.30
8002;DHT22;4046;48.774;8.732;2024-01-07T13:10:25;22.80;71.30
8002;DHT22;4046;48.774;8.732;2024-01-07T13:12:53;22.90;71.30
8002;DHT22;4046;48.774;8.732;2024-01-07T13:15:22;22.90;71.30
8002;DHT22;4046;48.774;8.732;2024-01-07T13:17:57;22.90;71.30
8002;DHT22;4046;48.774;8.732;2024-01-07T13:20:23;22.90;71.20
8002;DHT22;4046;48.774;8.732;2024-01-07T13:22:50;22.90;71.30
8002;DHT22;4046;48.774;8.732;2024-01-07T13:25:16;22.90;71.20
8002;DHT22;4046;48.774;8.732;2024-01-07T13:27:50;22.90;71.20
8002;DHT22;4046;48.774;8.732;2024-01-07T13:30:17;23.20;71.50
8002;DHT22;4046;48.774;8.732;2024-01-07T13:32:44;22.90;71.20
8002;DHT22;4046;48.774;8.732;2024-01-07T13:35:17;22.90;71.10
8002;DHT22;4046;48.774;8.732;2024-01-07T13:37:43;22.90;71.20
8002;DHT22;4046;48.774;8.732;2024-01-07T13:40:12;22.90;71.20
8002;DHT22;4046;48.774;8.732;2024-01-07T13:42:47;22.90;71.20
8002;DHT22;4046;48.774;8.732;2024-01-07T13:45:20;22.90;71.30
8002;DHT22;4046;48.774;8.732;2024-01-07T13:47:49;22.90;71.30
8002;DHT22;4046;48.774;8.732;2024-01-07T13:50:15;22.90;71.30
8002;DHT22;4046;48.774;8.732;2024-01-07T13:52:40;22.90;71.20
8002;DHT22;4046;48.774;8.732;2024-01-07T13:55:07;22.90;71.20
8002;DHT22;4046;48.774;8.732;2024-01-07T13:57:35;22.90;71.20
8002;DHT22;4046;48.774;8.732;2024-01-07T14:00:06;22.90;71.20
8002;DHT22;4046;48.774;8.732;2024-01-07T14:02:44;22.90;71.20
8002;DHT22;4046;48.774;8.732;2024-01-07T14:05:15;22.80;71.10
8002;DHT22;4046;48.774;8.732;2024-01-07T14:07:42;22.80;71.20
8002;DHT22;4046;48.774;8.732;2024-01-07T14:10:15;22.70;71.20
8002;DHT22;4046;48.774;8.732;2024-01-07T14:12:41;22.70;71.30
8002;DHT22;4046;48.774;8.732;2024-01-07T14:15:30;23.10;71.80
8002;DHT22;4046;48.774;8.732;2024-01-07T14:18:00;22.60;71.40
8002;DHT22;4046;48.774;8.732;2024-01-07T14:20:32;22.60;71.40
8002;DHT22;4046;48.774;8.732;2024-01-07T14:23:02;22.60;71.40
8002;DHT22;4046;48.774;8.732;2024-01-07T14:25:28;22.50;71.40
8002;DHT22;4046;48.774;8.732;2024-01-07T14:27:54;22.50;71.40
8002;DHT22;4046;48.774;8.732;2024-01-07T14:30:21;22.50;71.40
8002;DHT22;4046;48.774;8.732;2024-01-07T14:32:50;22.50;71.40
8002;DHT22;4046;48.774;8.732;2024-01-07T14:35:17;22.50;71.50
8002;DHT22;4046;48.774;8.732;2024-01-07T14:37:50;22.70;71.70
8002;DHT22;4046;48.774;8.732;2024-01-07T14:40:21;22.50;71.50
8002;DHT22;4046;48.774;8.732;2024-01-07T14:42:47;22.40;71.40
8002;DHT22;4046;48.774;8.732;2024-01-07T14:45:16;22.40;71.60
8002;DHT22;4046;48.774;8.732;2024-01-07T14:50:40;22.40;71.50
8002;DHT22;4046;48.774;8.732;2024-01-07T14:53:07;22.40;71.60
8002;DHT22;4046;48.774;8.732;2024-01-07T14:55:36;22.40;71.60
8002;DHT22;4046;48.774;8.732;2024-01-07T14:58:02;22.40;71.50
8002;DHT22;4046;48.774;8.732;2024-01-07T15:00:28;22.40;71.50
8002;DHT22;4046;48.774;8.732;2024-01-07T15:02:54;22.40;71.60
8002;DHT22;4046;48.774;8.732;2024-01-07T15:05:26;22.40;71.60
8002;DHT22;4046;48.774;8.732;2024-01-07T15:07:52;22.40;71.60
8002;DHT22;4046;48.774;8.732;2024-01-07T15:10:26;22.40;71.60
8002;DHT22;4046;48.774;8.732;2024-01-07T15:12:52;22.40;71.60
8002;DHT22;4046;48.774;8.732;2024-01-07T15:15:22;22.40;71.60
8002;DHT22;4046;48.774;8.732;2024-01-07T15:17:52;22.40;71.60
8002;DHT22;4046;48.774;8.732;2024-01-07T15:20:20;22.40;71.60
8002;DHT22;4046;48.774;8.732;2024-01-07T15:22:46;22.40;71.60
8002;DHT22;4046;48.774;8.732;2024-01-07T15:25:14;22.40;72.40
8002;DHT22;4046;48.774;8.732;2024-01-07T15:27:40;22.30;71.50
8002;DHT22;4046;48.774;8.732;2024-01-07T15:30:08;22.40;71.60
8002;DHT22;4046;48.774;8.732;2024-01-07T15:32:34;22.30;71.50
8002;DHT22;4046;48.774;8.732;2024-01-07T15:35:04;22.40;71.60
8002;DHT22;4046;48.774;8.732;2024-01-07T15:37:35;22.40;71.60
8002;DHT22;4046;48.774;8.732;2024-01-07T15:40:04;22.60;71.80
8002;DHT22;4046;48.774;8.732;2024-01-07T15:42:33;22.30;71.50
8002;DHT22;4046;48.774;8.732;2024-01-07T15:45:02;22.30;71.50
8002;DHT22;4046;48.774;8.732;2024-01-07T15:47:33;22.30;71.60
8002;DHT22;4046;48.774;8.732;2024-01-07T15:50:03;22.30;71.60
8002;DHT22;4046;48.774;8.732;2024-01-07T15:52:30;22.30;71.60
8002;DHT22;4046;48.774;8.732;2024-01-07T15:55:03;22.80;72.10
8002;DHT22;4046;48.774;8.732;2024-01-07T15:57:29;22.30;71.50
8002;DHT22;4046;48.774;8.732;2024-01-07T15:59:56;22.40;71.60
8002;DHT22;4046;48.774;8.732;2024-01-07T16:02:35;22.40;71.50
8002;DHT22;4046;48.774;8.732;2024-01-07T16:05:00;22.50;72.40
8002;DHT22;4046;48.774;8.732;2024-01-07T16:07:26;22.40;71.80
8002;DHT22;4046;48.774;8.732;2024-01-07T16:09:52;22.60;71.80
8002;DHT22;4046;48.774;8.732;2024-01-07T16:12:18;22.60;71.30
8002;DHT22;4046;48.774;8.732;2024-01-07T16:14:44;22.60;71.10
8002;DHT22;4046;48.774;8.732;2024-01-07T16:17:10;22.60;71.30
8002;DHT22;4046;48.774;8.732;2024-01-07T16:19:36;22.50;71.30